createdAt,value
2024-05-09T00:01:51.282Z,9.62
2024-05-09T00:04:22.905Z,9.57
2024-05-09T00:06:53.347Z,9.55
2024-05-09T00:09:25.021Z,9.52
2024-05-09T00:11:55.609Z,9.49
2024-05-09T00:14:27.508Z,9.43
2024-05-09T00:16:58.288Z,9.39
2024-05-09T00:19:30.040Z,9.36
2024-05-09T00:22:00.511Z,9.30
2024-05-09T00:24:32.187Z,9.22
2024-05-09T00:27:02.591Z,9.16
2024-05-09T00:29:34.431Z,9.11
2024-05-09T00:32:05.565Z,9.07
2024-05-09T00:34:37.371Z,9.04
2024-05-09T00:37:07.878Z,9.01
2024-05-09T00:39:39.754Z,8.98
2024-05-09T00:42:10.056Z,8.94
2024-05-09T00:44:41.956Z,8.93
2024-05-09T00:47:12.417Z,8.90
2024-05-09T00:49:44.217Z,8.86
2024-05-09T00:52:14.630Z,8.82
2024-05-09T00:54:46.296Z,8.79
2024-05-09T00:57:16.991Z,8.75
2024-05-09T00:59:48.685Z,8.73
2024-05-09T01:02:19.171Z,8.71
2024-05-09T01:04:53.541Z,8.68
2024-05-09T01:07:26.328Z,8.63
2024-05-09T01:09:56.730Z,8.58
2024-05-09T01:12:28.311Z,8.51
2024-05-09T01:14:58.832Z,8.45
2024-05-09T01:17:30.536Z,8.42
2024-05-09T01:20:01.361Z,8.38
2024-05-09T01:22:33.055Z,8.36
2024-05-09T01:25:03.802Z,8.34
2024-05-09T01:27:35.270Z,8.32
2024-05-09T01:30:09.542Z,8.30
2024-05-09T01:32:46.639Z,8.28
2024-05-09T01:35:17.425Z,8.28
2024-05-09T01:37:49.745Z,8.26
2024-05-09T01:40:25.358Z,8.25
2024-05-09T01:43:05.930Z,8.25
2024-05-09T01:45:36.186Z,8.26
2024-05-09T01:48:08.716Z,8.25
2024-05-09T01:50:41.960Z,8.25
2024-05-09T01:53:15.444Z,8.25
2024-05-09T01:55:46.024Z,8.26
2024-05-09T01:58:18.051Z,8.23
2024-05-09T02:00:48.972Z,8.14
2024-05-09T02:03:21.050Z,8.04
2024-05-09T02:05:51.522Z,7.95
2024-05-09T02:08:23.266Z,7.88
2024-05-09T02:10:54.066Z,7.82
2024-05-09T02:13:25.116Z,7.77
2024-05-09T02:15:55.917Z,7.72
2024-05-09T02:18:27.560Z,7.67
2024-05-09T02:20:57.767Z,7.62
2024-05-09T02:23:29.597Z,7.60
2024-05-09T02:26:00.260Z,7.56
2024-05-09T02:28:32.280Z,7.52
2024-05-09T02:31:02.403Z,7.49
2024-05-09T02:33:34.250Z,7.48
2024-05-09T02:36:05.837Z,7.45
2024-05-09T02:38:37.531Z,7.40
2024-05-09T02:41:08.710Z,7.30
2024-05-09T02:43:40.494Z,7.16
2024-05-09T02:46:10.883Z,7.01
2024-05-09T02:48:42.744Z,6.87
2024-05-09T02:51:13.217Z,6.74
2024-05-09T02:53:44.995Z,6.59
2024-05-09T02:56:15.511Z,6.46
2024-05-09T02:58:47.413Z,6.30
2024-05-09T03:01:18.270Z,6.15
2024-05-09T03:03:51.416Z,5.98
2024-05-09T03:06:22.007Z,5.84
2024-05-09T03:08:53.542Z,5.78
2024-05-09T03:11:24.174Z,5.72
2024-05-09T03:13:55.878Z,5.68
2024-05-09T03:16:26.342Z,5.67
2024-05-09T03:18:57.868Z,5.71
2024-05-09T03:21:28.757Z,5.72
2024-05-09T03:24:00.407Z,5.73
2024-05-09T03:26:30.985Z,5.75
2024-05-09T03:29:02.645Z,5.76
2024-05-09T03:31:33.410Z,5.74
2024-05-09T03:34:05.142Z,5.74
2024-05-09T03:36:35.596Z,5.74
2024-05-09T03:39:07.367Z,5.77
2024-05-09T03:41:38.152Z,5.81
2024-05-09T03:44:09.666Z,5.82
2024-05-09T03:46:40.430Z,5.82
2024-05-09T03:49:12.210Z,5.82
2024-05-09T03:51:42.862Z,5.81
2024-05-09T03:54:14.730Z,5.81
2024-05-09T03:56:46.267Z,5.84
2024-05-09T03:59:17.869Z,5.87
2024-05-09T04:01:49.275Z,5.90
2024-05-09T04:04:21.131Z,5.94
2024-05-09T04:06:51.879Z,5.98
2024-05-09T04:09:23.740Z,6.04
2024-05-09T04:11:54.215Z,6.14
2024-05-09T04:14:26.154Z,6.25
2024-05-09T04:16:56.793Z,6.36
2024-05-09T04:19:28.712Z,6.49
2024-05-09T04:21:59.253Z,6.62
2024-05-09T04:24:31.222Z,6.74
2024-05-09T04:27:01.843Z,6.84
2024-05-09T04:29:37.521Z,6.96
2024-05-09T04:32:09.921Z,7.10
2024-05-09T04:34:41.120Z,7.23
2024-05-09T04:37:12.861Z,7.33
2024-05-09T04:39:43.081Z,7.43
2024-05-09T04:42:15.044Z,7.55
2024-05-09T04:44:45.366Z,7.68
2024-05-09T04:47:17.293Z,7.84
2024-05-09T04:49:48.394Z,7.99
2024-05-09T04:52:19.943Z,8.13
2024-05-09T04:54:50.458Z,8.27
2024-05-09T04:57:21.902Z,8.41
2024-05-09T04:59:52.439Z,8.54
2024-05-09T05:02:24.024Z,8.63
2024-05-09T05:04:54.797Z,8.74
2024-05-09T05:07:26.583Z,8.85
2024-05-09T05:09:57.426Z,8.93
2024-05-09T05:12:47.616Z,9.01
2024-05-09T05:15:20.502Z,9.04
2024-05-09T05:17:51.193Z,9.05
2024-05-09T05:20:30.660Z,9.07
2024-05-09T05:23:08.112Z,9.10
2024-05-09T05:25:41.351Z,9.15
2024-05-09T05:28:11.777Z,9.21
2024-05-09T05:30:43.520Z,9.28
2024-05-09T05:33:14.568Z,9.33
2024-05-09T05:35:47.153Z,9.39
2024-05-09T05:38:17.934Z,9.40
2024-05-09T05:40:49.892Z,9.43
2024-05-09T05:43:20.691Z,9.50
2024-05-09T05:45:52.438Z,9.57
2024-05-09T05:48:23.192Z,9.63
2024-05-09T05:50:55.329Z,9.67
2024-05-09T05:53:26.006Z,9.67
2024-05-09T05:55:57.763Z,9.67
2024-05-09T05:58:28.261Z,9.76
2024-05-09T06:00:59.739Z,9.83
2024-05-09T06:03:30.629Z,9.90
2024-05-09T06:06:03.250Z,9.98
2024-05-09T06:08:33.989Z,10.04
2024-05-09T06:11:05.724Z,10.13
2024-05-09T06:13:36.446Z,10.24
2024-05-09T06:16:08.103Z,10.34
2024-05-09T06:18:38.857Z,10.37
2024-05-09T06:21:10.639Z,10.42
2024-05-09T06:23:47.730Z,10.51
2024-05-09T06:26:19.555Z,10.62
2024-05-09T06:28:49.793Z,10.68
2024-05-09T06:31:21.407Z,10.73
2024-05-09T06:33:52.014Z,10.79
2024-05-09T06:36:24.025Z,10.84
2024-05-09T06:38:54.335Z,10.91
2024-05-09T06:41:26.589Z,10.98
2024-05-09T06:43:56.849Z,11.05
2024-05-09T06:46:29.554Z,11.10
2024-05-09T06:49:06.018Z,11.20
2024-05-09T06:51:38.459Z,11.27
2024-05-09T06:54:08.869Z,11.31
2024-05-09T06:56:40.586Z,11.39
2024-05-09T06:59:11.300Z,11.52
2024-05-09T07:01:43.543Z,11.63
2024-05-09T07:04:14.041Z,11.76
2024-05-09T07:06:46.120Z,11.86
2024-05-09T07:09:16.453Z,11.91
2024-05-09T07:11:48.331Z,11.96
2024-05-09T07:14:18.808Z,12.03
2024-05-09T07:16:51.285Z,12.08
2024-05-09T07:19:22.066Z,12.11
2024-05-09T07:21:53.902Z,12.14
2024-05-09T07:24:24.220Z,12.24
2024-05-09T07:26:56.802Z,12.38
2024-05-09T07:29:27.318Z,12.54
2024-05-09T07:31:59.017Z,12.72
2024-05-09T07:34:29.605Z,12.86
2024-05-09T07:37:02.310Z,12.98
2024-05-09T07:39:32.614Z,13.07
2024-05-09T07:42:04.589Z,13.15
2024-05-09T07:44:35.242Z,13.22
2024-05-09T07:48:14.505Z,13.34
2024-05-09T07:51:48.014Z,13.45
2024-05-09T07:53:35.363Z,13.57
2024-05-09T07:55:43.165Z,13.67
2024-05-09T07:58:13.710Z,13.75
2024-05-09T08:00:45.460Z,13.86
2024-05-09T08:03:16.145Z,13.97
2024-05-09T08:05:47.892Z,14.07
2024-05-09T08:08:18.471Z,14.14
2024-05-09T08:10:50.702Z,14.19
2024-05-09T08:13:21.195Z,14.28
2024-05-09T08:15:53.593Z,14.31
2024-05-09T08:18:24.328Z,14.36
2024-05-09T08:20:56.645Z,14.49
2024-05-09T08:23:26.874Z,14.65
2024-05-09T08:25:58.523Z,14.76
2024-05-09T08:28:28.983Z,14.86
2024-05-09T08:31:01.743Z,14.97
2024-05-09T08:33:36.474Z,15.06
2024-05-09T08:36:07.505Z,15.16
2024-05-09T08:38:39.461Z,15.27
2024-05-09T08:41:13.267Z,15.42
2024-05-09T08:43:45.125Z,15.58
2024-05-09T08:46:15.672Z,15.71
2024-05-09T08:48:47.914Z,15.81
2024-05-09T08:51:18.245Z,15.95
2024-05-09T08:53:50.414Z,16.08
2024-05-09T08:56:20.635Z,16.22
2024-05-09T08:58:53.422Z,16.39
2024-05-09T09:01:23.780Z,16.53
2024-05-09T09:03:55.746Z,16.65
2024-05-09T09:06:26.049Z,16.76
2024-05-09T09:08:57.696Z,16.85
2024-05-09T09:11:28.042Z,16.90
2024-05-09T09:14:00.095Z,16.99
2024-05-09T09:16:34.189Z,17.02
2024-05-09T09:19:06.868Z,17.08
2024-05-09T09:21:37.635Z,17.21
2024-05-09T09:24:10.088Z,17.35
2024-05-09T09:26:40.910Z,17.48
2024-05-09T09:29:12.979Z,17.50
2024-05-09T09:31:43.401Z,17.49
2024-05-09T09:34:15.285Z,17.55
2024-05-09T09:36:45.829Z,17.66
2024-05-09T09:39:17.544Z,17.80
2024-05-09T09:41:47.986Z,17.94
2024-05-09T09:44:19.635Z,18.05
2024-05-09T09:46:50.323Z,18.18
2024-05-09T09:49:25.384Z,18.31
2024-05-09T09:51:58.067Z,18.36
2024-05-09T09:54:29.290Z,18.41
2024-05-09T09:57:01.314Z,18.47
2024-05-09T09:59:31.723Z,18.54
2024-05-09T10:02:04.180Z,18.63
2024-05-09T10:04:34.813Z,18.68
2024-05-09T10:07:07.828Z,18.77
2024-05-09T10:09:38.163Z,18.80
2024-05-09T10:12:13.777Z,18.85
2024-05-09T10:14:48.034Z,18.92
2024-05-09T10:17:18.366Z,19.02
2024-05-09T10:19:51.085Z,19.21
2024-05-09T10:25:27.275Z,19.37
2024-05-09T10:27:58.171Z,19.44
2024-05-09T10:30:35.713Z,19.58
2024-05-09T10:33:10.281Z,19.70
2024-05-09T10:35:40.445Z,19.87
2024-05-09T10:38:12.413Z,20.11
2024-05-09T10:40:42.597Z,20.49
2024-05-09T10:43:17.851Z,20.96
2024-05-09T10:45:50.579Z,21.48
2024-05-09T10:48:21.346Z,22.06
2024-05-09T10:50:53.091Z,22.68
2024-05-09T10:53:23.386Z,23.30
2024-05-09T10:55:58.297Z,23.79
2024-05-09T10:58:30.976Z,24.33
2024-05-09T11:01:04.365Z,24.76
2024-05-09T11:03:39.011Z,25.19
2024-05-09T11:06:11.366Z,25.66
2024-05-09T11:08:44.049Z,26.01
2024-05-09T11:11:14.276Z,26.12
2024-05-09T11:13:46.135Z,26.07
2024-05-09T11:16:19.372Z,26.06
2024-05-09T11:18:55.563Z,26.39
2024-05-09T11:21:27.469Z,27.03
2024-05-09T11:23:57.578Z,27.63
2024-05-09T11:26:29.725Z,27.97
2024-05-09T11:29:00.163Z,28.10
2024-05-09T11:31:32.149Z,28.26
2024-05-09T11:34:02.491Z,28.41
2024-05-09T11:36:34.467Z,28.86
2024-05-09T11:39:04.728Z,29.35
2024-05-09T11:41:36.498Z,29.70
2024-05-09T11:44:06.719Z,30.12
2024-05-09T11:46:38.469Z,30.61
2024-05-09T11:49:09.582Z,31.34
2024-05-09T11:51:41.496Z,31.89
2024-05-09T11:54:11.917Z,32.30
2024-05-09T11:56:43.862Z,32.66
2024-05-09T11:59:14.386Z,32.89
2024-05-09T12:01:46.200Z,32.98
2024-05-09T12:04:17.006Z,32.41
2024-05-09T12:06:48.891Z,31.47
2024-05-09T12:09:19.290Z,30.77
2024-05-09T12:11:51.207Z,30.46
2024-05-09T12:14:21.653Z,30.78
2024-05-09T12:16:53.551Z,31.08
2024-05-09T12:19:24.085Z,31.16
2024-05-09T12:21:55.765Z,31.04
2024-05-09T12:24:28.960Z,31.07
2024-05-09T12:27:00.867Z,31.96
2024-05-09T12:29:31.283Z,32.89
2024-05-09T12:32:03.203Z,33.74
2024-05-09T12:34:34.164Z,34.21
2024-05-09T12:37:05.980Z,34.50
2024-05-09T12:39:36.763Z,35.20
2024-05-09T12:42:09.713Z,36.21
2024-05-09T12:44:40.192Z,37.09
2024-05-09T12:47:11.850Z,37.46
2024-05-09T12:49:42.402Z,37.47
2024-05-09T12:52:14.101Z,36.73
2024-05-09T12:54:44.580Z,35.75
2024-05-09T12:57:16.215Z,34.22
2024-05-09T12:59:47.168Z,32.70
2024-05-09T13:02:19.193Z,31.26
2024-05-09T13:04:49.719Z,29.80
2024-05-09T13:07:21.556Z,28.34
2024-05-09T13:09:52.153Z,27.34
2024-05-09T13:12:25.024Z,26.63
2024-05-09T13:14:55.651Z,26.09
2024-05-09T13:17:27.316Z,25.82
2024-05-09T13:19:58.043Z,25.62
2024-05-09T13:22:29.716Z,25.67
2024-05-09T13:25:00.389Z,26.12
2024-05-09T13:27:32.251Z,26.77
2024-05-09T13:32:34.803Z,28.76
2024-05-09T13:35:05.503Z,29.36
2024-05-09T13:37:37.169Z,29.04
2024-05-09T13:40:11.992Z,28.32
2024-05-09T13:42:47.689Z,28.25
2024-05-09T13:45:21.868Z,28.92
2024-05-09T13:47:53.202Z,29.68
2024-05-09T13:50:33.171Z,30.08
2024-05-09T13:53:08.875Z,30.85
2024-05-09T13:55:40.722Z,31.02
2024-05-09T13:58:12.702Z,30.62
2024-05-09T14:00:47.908Z,31.21
2024-05-09T14:03:21.704Z,32.21
2024-05-09T14:05:52.976Z,32.59
2024-05-09T14:08:24.681Z,31.53
2024-05-09T14:10:56.276Z,30.30
2024-05-09T14:13:27.195Z,29.32
2024-05-09T14:15:57.719Z,28.38
2024-05-09T14:18:29.623Z,27.09
2024-05-09T14:20:59.977Z,25.87
2024-05-09T14:23:31.439Z,24.86
2024-05-09T14:26:01.759Z,24.46
2024-05-09T14:28:33.470Z,25.12
2024-05-09T14:31:03.772Z,25.61
2024-05-09T14:33:36.607Z,25.61
2024-05-09T14:36:07.240Z,25.37
2024-05-09T14:38:38.809Z,25.60
2024-05-09T14:41:10.565Z,27.17
2024-05-09T14:43:42.234Z,29.31
2024-05-09T14:46:12.672Z,31.14
2024-05-09T14:48:44.215Z,32.56
2024-05-09T14:51:14.618Z,33.63
2024-05-09T14:53:45.972Z,34.53
2024-05-09T14:56:16.710Z,35.45
2024-05-09T14:58:48.150Z,36.06
2024-05-09T15:01:20.610Z,36.41
2024-05-09T15:03:52.665Z,36.66
2024-05-09T15:06:23.048Z,36.45
2024-05-09T15:08:55.550Z,36.03
2024-05-09T15:11:25.830Z,35.71
2024-05-09T15:13:57.378Z,35.62
2024-05-09T15:16:27.939Z,36.35
2024-05-09T15:18:59.892Z,37.01
2024-05-09T15:21:31.329Z,37.32
2024-05-09T15:24:03.068Z,37.08
2024-05-09T15:26:33.514Z,37.26
2024-05-09T15:29:05.299Z,37.26
2024-05-09T15:31:36.066Z,37.45
2024-05-09T15:34:08.708Z,37.72
2024-05-09T15:36:41.019Z,38.06
2024-05-09T15:39:13.405Z,38.45
2024-05-09T15:41:44.147Z,38.59
2024-05-09T15:44:16.514Z,38.69
2024-05-09T15:46:47.420Z,38.95
2024-05-09T15:49:19.440Z,38.83
2024-05-09T15:51:49.973Z,38.47
2024-05-09T15:54:22.943Z,38.36
2024-05-09T15:56:54.586Z,38.17
2024-05-09T15:59:26.348Z,37.77
2024-05-09T16:01:57.270Z,37.58
2024-05-09T16:04:29.280Z,37.15
2024-05-09T16:06:59.713Z,36.76
2024-05-09T16:09:31.770Z,36.74
2024-05-09T16:12:02.168Z,36.85
2024-05-09T16:14:34.137Z,37.00
2024-05-09T16:17:04.711Z,36.81
2024-05-09T16:19:36.406Z,36.52
2024-05-09T16:22:06.586Z,36.44
2024-05-09T16:24:39.722Z,36.38
2024-05-09T16:27:09.959Z,36.34
2024-05-09T16:29:41.797Z,36.26
2024-05-09T16:32:12.157Z,36.32
2024-05-09T16:34:44.080Z,36.34
2024-05-09T16:37:14.659Z,36.28
2024-05-09T16:39:46.855Z,36.29
2024-05-09T16:42:17.115Z,35.85
2024-05-09T16:44:49.073Z,35.37
2024-05-09T16:47:19.355Z,35.10
2024-05-09T16:49:51.149Z,35.05
2024-05-09T16:52:21.503Z,34.89
2024-05-09T16:54:54.002Z,34.27
2024-05-09T16:57:24.542Z,33.71
2024-05-09T16:59:56.327Z,33.25
2024-05-09T17:02:27.129Z,32.85
2024-05-09T17:04:59.108Z,32.10
2024-05-09T17:07:29.661Z,30.48
2024-05-09T17:10:01.853Z,29.73
2024-05-09T17:12:32.391Z,29.73
2024-05-09T17:15:04.416Z,29.86
2024-05-09T17:17:34.655Z,30.02
2024-05-09T17:20:08.571Z,29.94
2024-05-09T17:22:44.310Z,29.89
2024-05-09T17:25:14.633Z,29.86
2024-05-09T17:27:46.579Z,29.62
2024-05-09T17:30:28.072Z,29.27
2024-05-09T17:33:06.079Z,28.62
2024-05-09T17:35:36.828Z,28.08
2024-05-09T17:38:08.706Z,27.03
2024-05-09T17:40:40.095Z,25.78
2024-05-09T17:43:12.163Z,24.56
2024-05-09T17:45:42.732Z,23.47
2024-05-09T17:48:15.159Z,22.54
2024-05-09T17:50:46.034Z,21.75
2024-05-09T17:53:17.683Z,21.04
2024-05-09T17:55:49.050Z,20.51
2024-05-09T17:58:20.927Z,20.02
2024-05-09T18:00:51.785Z,19.60
2024-05-09T18:03:23.841Z,19.21
2024-05-09T18:05:54.693Z,18.80
2024-05-09T18:08:26.794Z,18.41
2024-05-09T18:10:57.371Z,18.12
2024-05-09T18:13:29.290Z,17.86
2024-05-09T18:15:59.642Z,17.67
2024-05-09T18:18:31.557Z,17.52
2024-05-09T18:21:02.023Z,17.38
2024-05-09T18:23:34.675Z,17.25
2024-05-09T18:26:06.049Z,17.10
2024-05-09T18:28:37.481Z,16.97
2024-05-09T18:31:07.737Z,16.83
2024-05-09T18:33:39.456Z,16.73
2024-05-09T18:36:10.797Z,16.65
2024-05-09T18:38:42.376Z,16.54
2024-05-09T18:41:12.718Z,16.41
2024-05-09T18:43:45.497Z,16.21
2024-05-09T18:46:20.616Z,15.96
2024-05-09T18:48:51.270Z,15.71
2024-05-09T18:51:23.498Z,15.48
2024-05-09T18:53:55.240Z,15.27
2024-05-09T18:56:27.212Z,15.09
2024-05-09T18:58:57.662Z,14.92
2024-05-09T19:01:29.692Z,14.79
2024-05-09T19:04:00.451Z,14.60
2024-05-09T19:06:32.564Z,14.43
2024-05-09T19:09:03.352Z,14.29
2024-05-09T19:11:35.435Z,14.17
2024-05-09T19:14:07.521Z,14.04
2024-05-09T19:16:39.127Z,13.93
2024-05-09T19:19:10.385Z,13.82
2024-05-09T19:21:43.017Z,13.73
2024-05-09T19:24:13.790Z,13.67
2024-05-09T19:26:45.449Z,13.60
2024-05-09T19:29:15.979Z,13.51
2024-05-09T19:31:47.967Z,13.41
2024-05-09T19:34:18.520Z,13.36
2024-05-09T19:36:50.505Z,13.33
2024-05-09T19:39:21.067Z,13.30
2024-05-09T19:41:52.617Z,13.23
2024-05-09T19:44:23.353Z,13.21
2024-05-09T19:46:55.099Z,13.21
2024-05-09T19:49:26.048Z,13.20
2024-05-09T19:51:57.736Z,13.19
2024-05-09T19:54:28.331Z,13.15
2024-05-09T19:56:59.890Z,13.11
2024-05-09T19:59:30.511Z,13.06
2024-05-09T20:02:02.163Z,13.01
2024-05-09T20:04:33.132Z,12.93
2024-05-09T20:07:04.995Z,12.82
2024-05-09T20:09:35.416Z,12.70
2024-05-09T20:12:07.143Z,12.58
2024-05-09T20:14:38.694Z,12.50
2024-05-09T20:17:10.356Z,12.44
2024-05-09T20:19:43.033Z,12.38
2024-05-09T20:22:15.126Z,12.27
2024-05-09T20:24:45.634Z,12.20
2024-05-09T20:27:17.869Z,12.15
2024-05-09T20:29:48.325Z,12.11
2024-05-09T20:32:20.083Z,12.08
2024-05-09T20:34:51.894Z,12.04
2024-05-09T20:37:23.695Z,11.96
2024-05-09T20:39:54.611Z,11.84
2024-05-09T20:42:26.599Z,11.72
2024-05-09T20:44:56.913Z,11.58
2024-05-09T20:47:28.892Z,11.45
2024-05-09T20:49:59.528Z,11.31
2024-05-09T20:52:31.375Z,11.15
2024-05-09T20:55:01.850Z,11.00
2024-05-09T20:57:33.618Z,10.88
2024-05-09T21:00:12.044Z,10.77
2024-05-09T21:02:47.429Z,10.62
2024-05-09T21:05:19.209Z,10.49
2024-05-09T21:07:51.143Z,10.41
2024-05-09T21:10:22.863Z,10.40
2024-05-09T21:12:55.128Z,10.40
2024-05-09T21:15:25.716Z,10.37
2024-05-09T21:17:57.420Z,10.35
2024-05-09T21:20:31.675Z,10.32
2024-05-09T21:23:04.870Z,10.30
2024-05-09T21:25:35.272Z,10.25
2024-05-09T21:28:07.204Z,10.21
2024-05-09T21:30:41.840Z,10.15
2024-05-09T21:33:15.715Z,10.08
2024-05-09T21:35:46.318Z,9.97
2024-05-09T21:38:17.963Z,9.83
2024-05-09T21:40:48.221Z,9.73
2024-05-09T21:43:20.206Z,9.65
2024-05-09T21:45:50.867Z,9.55
2024-05-09T21:48:22.474Z,9.45
2024-05-09T21:50:53.054Z,9.38
2024-05-09T21:53:24.513Z,9.35
2024-05-09T21:55:54.837Z,9.34
2024-05-09T21:58:26.507Z,9.36
2024-05-09T22:00:57.380Z,9.37
2024-05-09T22:03:29.151Z,9.38
2024-05-09T22:06:00.132Z,9.37
2024-05-09T22:08:31.679Z,9.33
2024-05-09T22:11:02.393Z,9.30
2024-05-09T22:13:34.268Z,9.23
2024-05-09T22:16:05.041Z,9.13
2024-05-09T22:18:36.938Z,8.98
2024-05-09T22:21:07.393Z,8.85
2024-05-09T22:23:38.915Z,8.73
2024-05-09T22:26:09.396Z,8.62
2024-05-09T22:28:40.823Z,8.54
2024-05-09T22:31:11.129Z,8.45
2024-05-09T22:33:45.542Z,8.34
2024-05-09T22:36:19.062Z,8.22
2024-05-09T22:38:49.280Z,8.12
2024-05-09T22:41:21.149Z,8.06
2024-05-09T22:43:51.477Z,8.02
2024-05-09T22:46:23.448Z,7.99
2024-05-09T22:48:53.979Z,7.93
2024-05-09T22:51:25.719Z,7.89
2024-05-09T22:53:56.270Z,7.85
2024-05-09T22:56:28.524Z,7.78
2024-05-09T22:59:00.164Z,7.69
2024-05-09T23:01:31.926Z,7.64
2024-05-09T23:04:02.866Z,7.63
2024-05-09T23:06:34.665Z,7.62
2024-05-09T23:09:05.500Z,7.62
2024-05-09T23:11:40.856Z,7.60
2024-05-09T23:14:13.474Z,7.58
2024-05-09T23:16:43.773Z,7.58
2024-05-09T23:19:15.622Z,7.48
2024-05-09T23:21:45.771Z,7.38
2024-05-09T23:24:17.753Z,7.34
2024-05-09T23:26:47.761Z,7.32
2024-05-09T23:29:19.308Z,7.33
2024-05-09T23:31:49.941Z,7.34
2024-05-09T23:34:21.647Z,7.33
2024-05-09T23:36:52.062Z,7.28
2024-05-09T23:39:23.783Z,7.28
2024-05-09T23:41:54.209Z,7.28
2024-05-09T23:44:25.869Z,7.29
2024-05-09T23:46:56.040Z,7.33
2024-05-09T23:49:27.686Z,7.36
2024-05-09T23:51:57.862Z,7.34
2024-05-09T23:54:29.613Z,7.30
2024-05-09T23:56:59.646Z,7.33
2024-05-09T23:59:31.706Z,7.38
